sensor_id;sensor_type;location;lat;lon;timestamp;P1;durP1;ratioP1;P2;durP2;ratioP2
11988;SDS011;6054;50.966;7.094;2022-12-18T00:02:21;10.57;;;6.10;;
11988;SDS011;6054;50.966;7.094;2022-12-18T00:04:48;15.00;;;6.63;;
11988;SDS011;6054;50.966;7.094;2022-12-18T00:07:14;12.80;;;7.13;;
11988;SDS011;6054;50.966;7.094;2022-12-18T00:09:41;10.87;;;6.30;;
11988;SDS011;6054;50.966;7.094;2022-12-18T00:12:08;11.00;;;6.23;;
11988;SDS011;6054;50.966;7.094;2022-12-18T00:14:36;11.43;;;6.50;;
11988;SDS011;6054;50.966;7.094;2022-12-18T00:17:03;12.27;;;7.07;;
11988;SDS011;6054;50.966;7.094;2022-12-18T00:19:29;9.30;;;6.07;;
11988;SDS011;6054;50.966;7.094;2022-12-18T00:21:56;12.87;;;5.80;;
11988;SDS011;6054;50.966;7.094;2022-12-18T00:24:23;13.07;;;6.33;;
11988;SDS011;6054;50.966;7.094;2022-12-18T00:26:50;9.07;;;6.00;;
11988;SDS011;6054;50.966;7.094;2022-12-18T00:29:16;10.60;;;5.90;;
11988;SDS011;6054;50.966;7.094;2022-12-18T00:31:45;10.60;;;6.53;;
11988;SDS011;6054;50.966;7.094;2022-12-18T00:34:12;11.63;;;6.47;;
11988;SDS011;6054;50.966;7.094;2022-12-18T00:36:39;12.17;;;6.97;;
11988;SDS011;6054;50.966;7.094;2022-12-18T00:39:06;9.50;;;5.90;;
11988;SDS011;6054;50.966;7.094;2022-12-18T00:41:33;10.67;;;6.63;;
11988;SDS011;6054;50.966;7.094;2022-12-18T00:44:18;9.70;;;6.50;;
11988;SDS011;6054;50.966;7.094;2022-12-18T00:46:46;11.77;;;7.00;;
11988;SDS011;6054;50.966;7.094;2022-12-18T00:49:14;11.33;;;6.53;;
11988;SDS011;6054;50.966;7.094;2022-12-18T00:51:41;13.53;;;6.53;;
11988;SDS011;6054;50.966;7.094;2022-12-18T00:54:09;9.50;;;5.93;;
11988;SDS011;6054;50.966;7.094;2022-12-18T00:56:36;13.60;;;6.67;;
11988;SDS011;6054;50.966;7.094;2022-12-18T00:59:04;10.17;;;5.60;;
11988;SDS011;6054;50.966;7.094;2022-12-18T01:01:31;11.30;;;6.30;;
11988;SDS011;6054;50.966;7.094;2022-12-18T01:04:00;12.23;;;7.30;;
11988;SDS011;6054;50.966;7.094;2022-12-18T01:06:28;10.97;;;6.60;;
11988;SDS011;6054;50.966;7.094;2022-12-18T01:08:55;16.60;;;10.07;;
11988;SDS011;6054;50.966;7.094;2022-12-18T01:11:22;14.63;;;9.60;;
11988;SDS011;6054;50.966;7.094;2022-12-18T01:13:49;17.47;;;8.37;;
11988;SDS011;6054;50.966;7.094;2022-12-18T01:16:17;12.87;;;6.90;;
11988;SDS011;6054;50.966;7.094;2022-12-18T01:18:44;10.10;;;6.10;;
11988;SDS011;6054;50.966;7.094;2022-12-18T01:21:13;11.47;;;6.53;;
11988;SDS011;6054;50.966;7.094;2022-12-18T01:23:44;12.20;;;6.80;;
11988;SDS011;6054;50.966;7.094;2022-12-18T01:26:13;12.87;;;8.73;;
11988;SDS011;6054;50.966;7.094;2022-12-18T01:28:40;10.60;;;6.13;;
11988;SDS011;6054;50.966;7.094;2022-12-18T01:31:09;12.47;;;7.00;;
11988;SDS011;6054;50.966;7.094;2022-12-18T01:33:40;8.00;;;5.80;;
11988;SDS011;6054;50.966;7.094;2022-12-18T01:36:07;11.70;;;5.90;;
11988;SDS011;6054;50.966;7.094;2022-12-18T01:38:35;9.43;;;5.63;;
11988;SDS011;6054;50.966;7.094;2022-12-18T01:41:02;9.90;;;6.17;;
11988;SDS011;6054;50.966;7.094;2022-12-18T01:43:45;7.43;;;5.40;;
11988;SDS011;6054;50.966;7.094;2022-12-18T01:46:15;10.23;;;5.77;;
11988;SDS011;6054;50.966;7.094;2022-12-18T01:48:43;11.00;;;5.97;;
11988;SDS011;6054;50.966;7.094;2022-12-18T01:51:12;8.53;;;5.20;;
11988;SDS011;6054;50.966;7.094;2022-12-18T01:53:41;11.53;;;5.97;;
11988;SDS011;6054;50.966;7.094;2022-12-18T01:56:11;9.03;;;5.80;;
11988;SDS011;6054;50.966;7.094;2022-12-18T01:58:41;10.00;;;5.70;;
11988;SDS011;6054;50.966;7.094;2022-12-18T02:01:14;7.50;;;5.67;;
11988;SDS011;6054;50.966;7.094;2022-12-18T02:03:41;14.93;;;8.30;;
11988;SDS011;6054;50.966;7.094;2022-12-18T02:06:10;12.30;;;7.47;;
11988;SDS011;6054;50.966;7.094;2022-12-18T02:08:45;13.03;;;7.30;;
11988;SDS011;6054;50.966;7.094;2022-12-18T02:11:18;9.33;;;5.80;;
11988;SDS011;6054;50.966;7.094;2022-12-18T02:13:53;9.27;;;5.50;;
11988;SDS011;6054;50.966;7.094;2022-12-18T02:16:28;8.67;;;5.17;;
11988;SDS011;6054;50.966;7.094;2022-12-18T02:19:00;8.97;;;5.43;;
11988;SDS011;6054;50.966;7.094;2022-12-18T02:21:32;8.80;;;5.80;;
11988;SDS011;6054;50.966;7.094;2022-12-18T02:24:15;10.03;;;5.63;;
11988;SDS011;6054;50.966;7.094;2022-12-18T02:26:53;10.00;;;5.60;;
11988;SDS011;6054;50.966;7.094;2022-12-18T02:29:24;7.63;;;5.47;;
11988;SDS011;6054;50.966;7.094;2022-12-18T02:31:56;6.27;;;4.77;;
11988;SDS011;6054;50.966;7.094;2022-12-18T02:34:27;7.63;;;5.27;;
11988;SDS011;6054;50.966;7.094;2022-12-18T02:36:56;9.10;;;4.70;;
11988;SDS011;6054;50.966;7.094;2022-12-18T02:39:25;8.80;;;5.23;;
11988;SDS011;6054;50.966;7.094;2022-12-18T02:41:57;10.17;;;5.43;;
11988;SDS011;6054;50.966;7.094;2022-12-18T02:44:24;6.90;;;4.90;;
11988;SDS011;6054;50.966;7.094;2022-12-18T02:46:52;9.00;;;4.87;;
11988;SDS011;6054;50.966;7.094;2022-12-18T02:49:26;11.97;;;5.93;;
11988;SDS011;6054;50.966;7.094;2022-12-18T02:52:01;9.27;;;5.03;;
11988;SDS011;6054;50.966;7.094;2022-12-18T02:54:40;7.47;;;4.73;;
11988;SDS011;6054;50.966;7.094;2022-12-18T02:57:24;9.87;;;5.63;;
11988;SDS011;6054;50.966;7.094;2022-12-18T03:00:00;9.27;;;5.17;;
11988;SDS011;6054;50.966;7.094;2022-12-18T03:02:33;8.43;;;4.87;;
11988;SDS011;6054;50.966;7.094;2022-12-18T03:05:04;8.57;;;5.00;;
11988;SDS011;6054;50.966;7.094;2022-12-18T03:07:38;9.23;;;5.17;;
11988;SDS011;6054;50.966;7.094;2022-12-18T03:10:11;8.33;;;4.77;;
11988;SDS011;6054;50.966;7.094;2022-12-18T03:12:44;9.67;;;5.10;;
11988;SDS011;6054;50.966;7.094;2022-12-18T03:15:16;11.27;;;5.43;;
11988;SDS011;6054;50.966;7.094;2022-12-18T03:17:49;9.23;;;5.70;;
11988;SDS011;6054;50.966;7.094;2022-12-18T03:20:21;7.17;;;4.40;;
11988;SDS011;6054;50.966;7.094;2022-12-18T03:22:51;10.67;;;5.33;;
11988;SDS011;6054;50.966;7.094;2022-12-18T03:25:23;10.43;;;5.70;;
11988;SDS011;6054;50.966;7.094;2022-12-18T03:27:54;8.03;;;5.07;;
11988;SDS011;6054;50.966;7.094;2022-12-18T03:30:24;6.63;;;4.27;;
11988;SDS011;6054;50.966;7.094;2022-12-18T03:32:56;10.03;;;5.63;;
11988;SDS011;6054;50.966;7.094;2022-12-18T03:35:29;8.63;;;5.00;;
11988;SDS011;6054;50.966;7.094;2022-12-18T03:37:59;8.77;;;5.17;;
11988;SDS011;6054;50.966;7.094;2022-12-18T03:40:26;10.17;;;5.20;;
11988;SDS011;6054;50.966;7.094;2022-12-18T03:43:03;9.50;;;5.17;;
11988;SDS011;6054;50.966;7.094;2022-12-18T03:45:37;10.00;;;5.40;;
11988;SDS011;6054;50.966;7.094;2022-12-18T03:48:07;9.37;;;5.17;;
11988;SDS011;6054;50.966;7.094;2022-12-18T03:50:41;10.10;;;5.33;;
11988;SDS011;6054;50.966;7.094;2022-12-18T03:53:16;8.53;;;5.17;;
11988;SDS011;6054;50.966;7.094;2022-12-18T03:55:49;9.50;;;5.13;;
11988;SDS011;6054;50.966;7.094;2022-12-18T03:58:19;7.47;;;5.17;;
11988;SDS011;6054;50.966;7.094;2022-12-18T04:00:49;7.23;;;4.83;;
11988;SDS011;6054;50.966;7.094;2022-12-18T04:03:18;9.17;;;5.07;;
11988;SDS011;6054;50.966;7.094;2022-12-18T04:05:46;9.27;;;5.20;;
11988;SDS011;6054;50.966;7.094;2022-12-18T04:08:16;8.43;;;5.13;;
11988;SDS011;6054;50.966;7.094;2022-12-18T04:10:43;7.73;;;4.27;;
11988;SDS011;6054;50.966;7.094;2022-12-18T04:13:10;10.03;;;4.80;;
11988;SDS011;6054;50.966;7.094;2022-12-18T04:15:38;10.70;;;4.93;;
11988;SDS011;6054;50.966;7.094;2022-12-18T04:18:05;7.43;;;4.50;;
11988;SDS011;6054;50.966;7.094;2022-12-18T04:20:33;9.03;;;4.83;;
11988;SDS011;6054;50.966;7.094;2022-12-18T04:23:00;10.37;;;4.90;;
11988;SDS011;6054;50.966;7.094;2022-12-18T04:25:27;6.33;;;4.63;;
11988;SDS011;6054;50.966;7.094;2022-12-18T04:27:54;8.63;;;4.40;;
11988;SDS011;6054;50.966;7.094;2022-12-18T04:30:21;6.43;;;4.67;;
11988;SDS011;6054;50.966;7.094;2022-12-18T04:32:49;7.30;;;4.37;;
11988;SDS011;6054;50.966;7.094;2022-12-18T04:35:16;8.03;;;4.63;;
11988;SDS011;6054;50.966;7.094;2022-12-18T04:37:42;10.77;;;4.53;;
11988;SDS011;6054;50.966;7.094;2022-12-18T04:40:10;8.43;;;4.67;;
11988;SDS011;6054;50.966;7.094;2022-12-18T04:42:38;7.93;;;5.03;;
11988;SDS011;6054;50.966;7.094;2022-12-18T04:45:06;7.97;;;4.80;;
11988;SDS011;6054;50.966;7.094;2022-12-18T04:47:34;7.17;;;4.17;;
11988;SDS011;6054;50.966;7.094;2022-12-18T04:50:02;7.80;;;4.10;;
11988;SDS011;6054;50.966;7.094;2022-12-18T04:52:29;6.03;;;4.47;;
11988;SDS011;6054;50.966;7.094;2022-12-18T04:54:57;6.40;;;4.20;;
11988;SDS011;6054;50.966;7.094;2022-12-18T04:57:24;8.53;;;4.80;;
11988;SDS011;6054;50.966;7.094;2022-12-18T04:59:51;8.57;;;4.10;;
11988;SDS011;6054;50.966;7.094;2022-12-18T05:02:18;7.20;;;4.57;;
11988;SDS011;6054;50.966;7.094;2022-12-18T05:04:45;6.50;;;4.30;;
11988;SDS011;6054;50.966;7.094;2022-12-18T05:07:13;7.33;;;4.40;;
11988;SDS011;6054;50.966;7.094;2022-12-18T05:09:39;6.17;;;4.30;;
11988;SDS011;6054;50.966;7.094;2022-12-18T05:12:06;8.80;;;4.30;;
11988;SDS011;6054;50.966;7.094;2022-12-18T05:14:33;7.77;;;4.60;;
11988;SDS011;6054;50.966;7.094;2022-12-18T05:17:00;6.80;;;4.20;;
11988;SDS011;6054;50.966;7.094;2022-12-18T05:19:27;6.53;;;4.27;;
11988;SDS011;6054;50.966;7.094;2022-12-18T05:21:54;7.10;;;4.47;;
11988;SDS011;6054;50.966;7.094;2022-12-18T05:24:22;6.50;;;4.40;;
11988;SDS011;6054;50.966;7.094;2022-12-18T05:26:49;7.33;;;4.53;;
11988;SDS011;6054;50.966;7.094;2022-12-18T05:29:15;7.50;;;4.17;;
11988;SDS011;6054;50.966;7.094;2022-12-18T05:31:42;7.53;;;4.20;;
11988;SDS011;6054;50.966;7.094;2022-12-18T05:34:09;7.07;;;3.80;;
11988;SDS011;6054;50.966;7.094;2022-12-18T05:36:36;8.00;;;4.17;;
11988;SDS011;6054;50.966;7.094;2022-12-18T05:39:03;6.30;;;4.50;;
11988;SDS011;6054;50.966;7.094;2022-12-18T05:41:31;8.77;;;4.80;;
11988;SDS011;6054;50.966;7.094;2022-12-18T05:43:58;5.87;;;4.03;;
11988;SDS011;6054;50.966;7.094;2022-12-18T05:46:25;6.83;;;4.30;;
11988;SDS011;6054;50.966;7.094;2022-12-18T05:48:52;7.73;;;4.30;;
11988;SDS011;6054;50.966;7.094;2022-12-18T05:51:20;7.07;;;4.03;;
11988;SDS011;6054;50.966;7.094;2022-12-18T05:53:48;8.23;;;4.50;;
11988;SDS011;6054;50.966;7.094;2022-12-18T05:56:18;7.70;;;4.07;;
11988;SDS011;6054;50.966;7.094;2022-12-18T05:58:47;8.70;;;4.40;;
11988;SDS011;6054;50.966;7.094;2022-12-18T06:01:18;7.27;;;4.13;;
11988;SDS011;6054;50.966;7.094;2022-12-18T06:03:47;8.20;;;4.00;;
11988;SDS011;6054;50.966;7.094;2022-12-18T06:06:14;7.57;;;4.43;;
11988;SDS011;6054;50.966;7.094;2022-12-18T06:08:42;8.43;;;4.23;;
11988;SDS011;6054;50.966;7.094;2022-12-18T06:11:09;6.00;;;4.00;;
11988;SDS011;6054;50.966;7.094;2022-12-18T06:13:37;5.60;;;4.10;;
11988;SDS011;6054;50.966;7.094;2022-12-18T06:16:05;6.07;;;3.87;;
11988;SDS011;6054;50.966;7.094;2022-12-18T06:18:33;7.13;;;4.13;;
11988;SDS011;6054;50.966;7.094;2022-12-18T06:21:00;5.60;;;3.93;;
11988;SDS011;6054;50.966;7.094;2022-12-18T06:23:26;8.83;;;4.50;;
11988;SDS011;6054;50.966;7.094;2022-12-18T06:25:53;8.03;;;4.13;;
11988;SDS011;6054;50.966;7.094;2022-12-18T06:28:20;5.73;;;3.97;;
11988;SDS011;6054;50.966;7.094;2022-12-18T06:30:47;8.20;;;4.43;;
11988;SDS011;6054;50.966;7.094;2022-12-18T06:33:16;5.90;;;3.47;;
11988;SDS011;6054;50.966;7.094;2022-12-18T06:35:43;6.27;;;3.83;;
11988;SDS011;6054;50.966;7.094;2022-12-18T06:38:10;7.53;;;4.50;;
11988;SDS011;6054;50.966;7.094;2022-12-18T06:40:37;7.27;;;4.60;;
11988;SDS011;6054;50.966;7.094;2022-12-18T06:43:05;7.27;;;4.37;;
11988;SDS011;6054;50.966;7.094;2022-12-18T06:45:32;6.40;;;4.13;;
11988;SDS011;6054;50.966;7.094;2022-12-18T06:47:58;6.73;;;4.03;;
11988;SDS011;6054;50.966;7.094;2022-12-18T06:50:27;8.33;;;4.70;;
11988;SDS011;6054;50.966;7.094;2022-12-18T06:52:53;8.30;;;4.50;;
11988;SDS011;6054;50.966;7.094;2022-12-18T06:55:20;9.07;;;4.90;;
11988;SDS011;6054;50.966;7.094;2022-12-18T06:57:47;7.27;;;4.40;;
11988;SDS011;6054;50.966;7.094;2022-12-18T07:00:14;6.87;;;4.40;;
11988;SDS011;6054;50.966;7.094;2022-12-18T07:02:44;8.80;;;4.57;;
11988;SDS011;6054;50.966;7.094;2022-12-18T07:05:11;6.87;;;4.57;;
11988;SDS011;6054;50.966;7.094;2022-12-18T07:07:39;9.47;;;4.40;;
11988;SDS011;6054;50.966;7.094;2022-12-18T07:10:06;7.83;;;4.47;;
11988;SDS011;6054;50.966;7.094;2022-12-18T07:12:33;7.87;;;4.67;;
11988;SDS011;6054;50.966;7.094;2022-12-18T07:15:00;6.87;;;4.00;;
11988;SDS011;6054;50.966;7.094;2022-12-18T07:17:26;10.63;;;4.90;;
11988;SDS011;6054;50.966;7.094;2022-12-18T07:19:54;6.60;;;4.47;;
11988;SDS011;6054;50.966;7.094;2022-12-18T07:22:21;9.67;;;4.43;;
11988;SDS011;6054;50.966;7.094;2022-12-18T07:24:49;7.47;;;4.57;;
11988;SDS011;6054;50.966;7.094;2022-12-18T07:27:16;10.63;;;4.33;;
11988;SDS011;6054;50.966;7.094;2022-12-18T07:29:43;7.50;;;4.23;;
11988;SDS011;6054;50.966;7.094;2022-12-18T07:32:10;6.27;;;4.27;;
11988;SDS011;6054;50.966;7.094;2022-12-18T07:34:37;6.87;;;3.77;;
11988;SDS011;6054;50.966;7.094;2022-12-18T07:37:03;8.90;;;4.63;;
11988;SDS011;6054;50.966;7.094;2022-12-18T07:39:30;7.47;;;4.27;;
11988;SDS011;6054;50.966;7.094;2022-12-18T07:41:58;9.30;;;4.77;;
11988;SDS011;6054;50.966;7.094;2022-12-18T07:44:42;12.63;;;5.07;;
11988;SDS011;6054;50.966;7.094;2022-12-18T07:47:09;12.40;;;5.17;;
11988;SDS011;6054;50.966;7.094;2022-12-18T07:49:35;8.07;;;5.23;;
11988;SDS011;6054;50.966;7.094;2022-12-18T07:52:02;8.23;;;5.27;;
11988;SDS011;6054;50.966;7.094;2022-12-18T07:54:29;12.43;;;5.50;;
11988;SDS011;6054;50.966;7.094;2022-12-18T07:56:56;11.50;;;6.20;;
11988;SDS011;6054;50.966;7.094;2022-12-18T07:59:24;10.30;;;4.90;;
11988;SDS011;6054;50.966;7.094;2022-12-18T08:01:51;9.20;;;5.17;;
11988;SDS011;6054;50.966;7.094;2022-12-18T08:04:18;10.90;;;5.33;;
11988;SDS011;6054;50.966;7.094;2022-12-18T08:06:45;10.17;;;5.47;;
11988;SDS011;6054;50.966;7.094;2022-12-18T08:09:12;8.93;;;5.60;;
11988;SDS011;6054;50.966;7.094;2022-12-18T08:11:38;7.60;;;4.77;;
11988;SDS011;6054;50.966;7.094;2022-12-18T08:14:05;9.13;;;5.43;;
11988;SDS011;6054;50.966;7.094;2022-12-18T08:16:33;8.83;;;5.23;;
11988;SDS011;6054;50.966;7.094;2022-12-18T08:19:00;11.00;;;5.50;;
11988;SDS011;6054;50.966;7.094;2022-12-18T08:21:28;11.43;;;5.87;;
11988;SDS011;6054;50.966;7.094;2022-12-18T08:23:57;8.20;;;5.13;;
11988;SDS011;6054;50.966;7.094;2022-12-18T08:26:26;10.07;;;5.40;;
11988;SDS011;6054;50.966;7.094;2022-12-18T08:28:54;9.03;;;5.13;;
11988;SDS011;6054;50.966;7.094;2022-12-18T08:31:21;10.10;;;5.90;;
11988;SDS011;6054;50.966;7.094;2022-12-18T08:33:50;10.57;;;5.30;;
11988;SDS011;6054;50.966;7.094;2022-12-18T08:36:17;9.73;;;5.67;;
11988;SDS011;6054;50.966;7.094;2022-12-18T08:38:45;11.87;;;5.30;;
11988;SDS011;6054;50.966;7.094;2022-12-18T08:41:12;7.83;;;5.03;;
11988;SDS011;6054;50.966;7.094;2022-12-18T08:43:41;11.23;;;5.77;;
11988;SDS011;6054;50.966;7.094;2022-12-18T08:46:26;10.03;;;5.87;;
11988;SDS011;6054;50.966;7.094;2022-12-18T08:48:58;8.47;;;5.70;;
11988;SDS011;6054;50.966;7.094;2022-12-18T08:51:25;10.03;;;6.37;;
11988;SDS011;6054;50.966;7.094;2022-12-18T08:53:51;9.33;;;5.90;;
11988;SDS011;6054;50.966;7.094;2022-12-18T08:56:18;9.77;;;5.60;;
11988;SDS011;6054;50.966;7.094;2022-12-18T08:58:45;11.00;;;6.70;;
11988;SDS011;6054;50.966;7.094;2022-12-18T09:01:12;10.10;;;6.27;;
11988;SDS011;6054;50.966;7.094;2022-12-18T09:03:39;12.03;;;6.53;;
11988;SDS011;6054;50.966;7.094;2022-12-18T09:06:08;15.23;;;6.83;;
11988;SDS011;6054;50.966;7.094;2022-12-18T09:08:35;10.67;;;6.33;;
11988;SDS011;6054;50.966;7.094;2022-12-18T09:11:02;10.90;;;6.20;;
11988;SDS011;6054;50.966;7.094;2022-12-18T09:13:39;12.03;;;6.33;;
11988;SDS011;6054;50.966;7.094;2022-12-18T09:16:06;10.97;;;6.00;;
11988;SDS011;6054;50.966;7.094;2022-12-18T09:19:18;10.30;;;6.50;;
11988;SDS011;6054;50.966;7.094;2022-12-18T09:21:46;10.87;;;6.17;;
11988;SDS011;6054;50.966;7.094;2022-12-18T09:24:28;11.10;;;6.17;;
11988;SDS011;6054;50.966;7.094;2022-12-18T09:27:01;11.40;;;6.47;;
11988;SDS011;6054;50.966;7.094;2022-12-18T09:29:31;9.67;;;5.73;;
11988;SDS011;6054;50.966;7.094;2022-12-18T09:32:07;12.10;;;6.63;;
11988;SDS011;6054;50.966;7.094;2022-12-18T09:34:34;9.17;;;5.30;;
11988;SDS011;6054;50.966;7.094;2022-12-18T09:37:02;9.57;;;5.73;;
11988;SDS011;6054;50.966;7.094;2022-12-18T09:39:29;11.17;;;6.53;;
11988;SDS011;6054;50.966;7.094;2022-12-18T09:41:57;10.50;;;6.07;;
11988;SDS011;6054;50.966;7.094;2022-12-18T09:44:36;12.47;;;6.43;;
11988;SDS011;6054;50.966;7.094;2022-12-18T09:47:21;11.03;;;6.93;;
11988;SDS011;6054;50.966;7.094;2022-12-18T09:49:51;10.37;;;5.93;;
11988;SDS011;6054;50.966;7.094;2022-12-18T09:52:23;9.60;;;6.03;;
11988;SDS011;6054;50.966;7.094;2022-12-18T09:54:55;9.37;;;5.13;;
11988;SDS011;6054;50.966;7.094;2022-12-18T09:57:26;10.57;;;6.50;;
11988;SDS011;6054;50.966;7.094;2022-12-18T10:00:04;10.53;;;6.07;;
11988;SDS011;6054;50.966;7.094;2022-12-18T10:03:01;9.40;;;5.80;;
11988;SDS011;6054;50.966;7.094;2022-12-18T10:05:39;8.30;;;5.83;;
11988;SDS011;6054;50.966;7.094;2022-12-18T10:08:18;10.93;;;6.10;;
11988;SDS011;6054;50.966;7.094;2022-12-18T10:10:51;7.73;;;4.90;;
11988;SDS011;6054;50.966;7.094;2022-12-18T10:13:21;10.87;;;5.73;;
11988;SDS011;6054;50.966;7.094;2022-12-18T10:16:02;10.97;;;7.03;;
11988;SDS011;6054;50.966;7.094;2022-12-18T10:18:38;8.77;;;5.87;;
11988;SDS011;6054;50.966;7.094;2022-12-18T10:21:23;9.90;;;6.57;;
11988;SDS011;6054;50.966;7.094;2022-12-18T10:23:57;11.30;;;6.73;;
11988;SDS011;6054;50.966;7.094;2022-12-18T10:26:28;10.43;;;5.30;;
11988;SDS011;6054;50.966;7.094;2022-12-18T10:28:57;10.00;;;5.90;;
11988;SDS011;6054;50.966;7.094;2022-12-18T10:31:25;8.93;;;5.90;;
11988;SDS011;6054;50.966;7.094;2022-12-18T10:33:53;9.03;;;5.70;;
11988;SDS011;6054;50.966;7.094;2022-12-18T10:36:20;9.60;;;6.37;;
11988;SDS011;6054;50.966;7.094;2022-12-18T10:38:47;12.07;;;6.60;;
11988;SDS011;6054;50.966;7.094;2022-12-18T10:41:24;9.97;;;6.47;;
11988;SDS011;6054;50.966;7.094;2022-12-18T10:44:10;6.97;;;4.70;;
11988;SDS011;6054;50.966;7.094;2022-12-18T10:46:38;8.60;;;6.53;;
11988;SDS011;6054;50.966;7.094;2022-12-18T10:49:17;9.47;;;5.97;;
11988;SDS011;6054;50.966;7.094;2022-12-18T10:51:47;11.07;;;6.13;;
11988;SDS011;6054;50.966;7.094;2022-12-18T10:54:14;8.30;;;6.00;;
11988;SDS011;6054;50.966;7.094;2022-12-18T10:56:45;10.20;;;6.30;;
11988;SDS011;6054;50.966;7.094;2022-12-18T10:59:12;11.07;;;7.20;;
11988;SDS011;6054;50.966;7.094;2022-12-18T11:01:50;9.37;;;6.70;;
11988;SDS011;6054;50.966;7.094;2022-12-18T11:04:20;12.10;;;7.27;;
11988;SDS011;6054;50.966;7.094;2022-12-18T11:06:55;10.73;;;5.80;;
11988;SDS011;6054;50.966;7.094;2022-12-18T11:09:27;6.90;;;5.13;;
11988;SDS011;6054;50.966;7.094;2022-12-18T11:11:58;10.17;;;6.23;;
11988;SDS011;6054;50.966;7.094;2022-12-18T11:14:26;13.37;;;7.10;;
11988;SDS011;6054;50.966;7.094;2022-12-18T11:16:55;11.37;;;7.37;;
11988;SDS011;6054;50.966;7.094;2022-12-18T11:19:30;9.53;;;6.27;;
11988;SDS011;6054;50.966;7.094;2022-12-18T11:22:00;10.57;;;7.00;;
11988;SDS011;6054;50.966;7.094;2022-12-18T11:24:29;12.37;;;7.20;;
11988;SDS011;6054;50.966;7.094;2022-12-18T11:26:59;12.03;;;7.07;;
11988;SDS011;6054;50.966;7.094;2022-12-18T11:29:34;13.40;;;7.53;;
11988;SDS011;6054;50.966;7.094;2022-12-18T11:32:13;10.77;;;7.33;;
11988;SDS011;6054;50.966;7.094;2022-12-18T11:34:52;12.07;;;7.23;;
11988;SDS011;6054;50.966;7.094;2022-12-18T11:37:25;10.47;;;6.30;;
11988;SDS011;6054;50.966;7.094;2022-12-18T11:39:54;9.80;;;6.50;;
11988;SDS011;6054;50.966;7.094;2022-12-18T11:42:27;12.30;;;7.73;;
11988;SDS011;6054;50.966;7.094;2022-12-18T11:45:02;13.20;;;7.40;;
11988;SDS011;6054;50.966;7.094;2022-12-18T11:47:41;14.83;;;8.03;;
11988;SDS011;6054;50.966;7.094;2022-12-18T11:50:12;12.70;;;7.77;;
11988;SDS011;6054;50.966;7.094;2022-12-18T11:52:43;12.33;;;7.67;;
11988;SDS011;6054;50.966;7.094;2022-12-18T11:55:11;11.83;;;7.03;;
11988;SDS011;6054;50.966;7.094;2022-12-18T11:57:42;14.00;;;7.93;;
11988;SDS011;6054;50.966;7.094;2022-12-18T12:00:20;14.93;;;8.27;;
11988;SDS011;6054;50.966;7.094;2022-12-18T12:05:50;10.57;;;7.13;;
11988;SDS011;6054;50.966;7.094;2022-12-18T12:08:36;14.13;;;7.40;;
11988;SDS011;6054;50.966;7.094;2022-12-18T12:11:13;12.87;;;7.87;;
11988;SDS011;6054;50.966;7.094;2022-12-18T12:14:01;12.47;;;6.80;;
11988;SDS011;6054;50.966;7.094;2022-12-18T12:16:41;15.33;;;8.50;;
11988;SDS011;6054;50.966;7.094;2022-12-18T12:19:20;12.73;;;8.10;;
11988;SDS011;6054;50.966;7.094;2022-12-18T12:21:57;13.53;;;8.57;;
11988;SDS011;6054;50.966;7.094;2022-12-18T12:24:33;13.50;;;8.53;;
11988;SDS011;6054;50.966;7.094;2022-12-18T12:27:13;14.93;;;8.20;;
11988;SDS011;6054;50.966;7.094;2022-12-18T12:29:49;11.27;;;7.30;;
11988;SDS011;6054;50.966;7.094;2022-12-18T12:32:27;17.43;;;8.53;;
11988;SDS011;6054;50.966;7.094;2022-12-18T12:35:08;16.17;;;9.80;;
11988;SDS011;6054;50.966;7.094;2022-12-18T12:37:50;12.10;;;7.37;;
11988;SDS011;6054;50.966;7.094;2022-12-18T12:40:23;14.87;;;8.73;;
11988;SDS011;6054;50.966;7.094;2022-12-18T12:42:54;14.33;;;9.10;;
11988;SDS011;6054;50.966;7.094;2022-12-18T12:45:40;14.23;;;8.53;;
11988;SDS011;6054;50.966;7.094;2022-12-18T12:48:15;14.97;;;8.70;;
11988;SDS011;6054;50.966;7.094;2022-12-18T12:50:46;12.37;;;6.70;;
11988;SDS011;6054;50.966;7.094;2022-12-18T12:53:16;15.60;;;9.30;;
11988;SDS011;6054;50.966;7.094;2022-12-18T12:55:48;17.00;;;9.90;;
11988;SDS011;6054;50.966;7.094;2022-12-18T12:58:16;15.13;;;9.10;;
11988;SDS011;6054;50.966;7.094;2022-12-18T13:00:55;15.17;;;9.20;;
11988;SDS011;6054;50.966;7.094;2022-12-18T13:03:33;17.30;;;9.13;;
11988;SDS011;6054;50.966;7.094;2022-12-18T13:06:11;12.43;;;7.87;;
11988;SDS011;6054;50.966;7.094;2022-12-18T13:08:52;16.77;;;9.70;;
11988;SDS011;6054;50.966;7.094;2022-12-18T13:11:37;15.80;;;8.73;;
11988;SDS011;6054;50.966;7.094;2022-12-18T13:14:24;10.13;;;6.70;;
11988;SDS011;6054;50.966;7.094;2022-12-18T13:20:02;15.20;;;9.60;;
11988;SDS011;6054;50.966;7.094;2022-12-18T13:22:34;15.47;;;9.37;;
11988;SDS011;6054;50.966;7.094;2022-12-18T13:25:03;16.10;;;9.80;;
11988;SDS011;6054;50.966;7.094;2022-12-18T13:28:04;17.00;;;8.83;;
11988;SDS011;6054;50.966;7.094;2022-12-18T13:33:38;12.73;;;8.03;;
11988;SDS011;6054;50.966;7.094;2022-12-18T13:45:36;17.67;;;10.30;;
11988;SDS011;6054;50.966;7.094;2022-12-18T13:48:10;15.03;;;8.63;;
11988;SDS011;6054;50.966;7.094;2022-12-18T13:50:43;17.77;;;11.37;;
11988;SDS011;6054;50.966;7.094;2022-12-18T13:53:20;16.30;;;10.47;;
11988;SDS011;6054;50.966;7.094;2022-12-18T13:55:49;16.53;;;10.07;;
11988;SDS011;6054;50.966;7.094;2022-12-18T13:58:16;16.73;;;9.63;;
11988;SDS011;6054;50.966;7.094;2022-12-18T14:00:43;16.70;;;10.20;;
11988;SDS011;6054;50.966;7.094;2022-12-18T14:03:21;18.20;;;10.53;;
11988;SDS011;6054;50.966;7.094;2022-12-18T14:05:56;17.23;;;10.73;;
11988;SDS011;6054;50.966;7.094;2022-12-18T14:08:27;19.97;;;11.03;;
11988;SDS011;6054;50.966;7.094;2022-12-18T14:10:59;16.83;;;10.23;;
11988;SDS011;6054;50.966;7.094;2022-12-18T14:13:28;20.73;;;10.97;;
11988;SDS011;6054;50.966;7.094;2022-12-18T14:15:57;19.50;;;11.67;;
11988;SDS011;6054;50.966;7.094;2022-12-18T14:18:26;17.53;;;9.70;;
11988;SDS011;6054;50.966;7.094;2022-12-18T14:21:01;19.93;;;11.00;;
11988;SDS011;6054;50.966;7.094;2022-12-18T14:23:31;18.17;;;10.33;;
11988;SDS011;6054;50.966;7.094;2022-12-18T14:25:59;16.23;;;9.30;;
11988;SDS011;6054;50.966;7.094;2022-12-18T14:28:26;18.33;;;11.33;;
11988;SDS011;6054;50.966;7.094;2022-12-18T14:30:53;16.47;;;10.43;;
11988;SDS011;6054;50.966;7.094;2022-12-18T14:33:21;18.07;;;10.20;;
11988;SDS011;6054;50.966;7.094;2022-12-18T14:35:54;18.10;;;10.40;;
11988;SDS011;6054;50.966;7.094;2022-12-18T14:38:25;15.70;;;9.80;;
11988;SDS011;6054;50.966;7.094;2022-12-18T14:41:04;20.57;;;9.83;;
11988;SDS011;6054;50.966;7.094;2022-12-18T14:43:33;14.23;;;8.23;;
11988;SDS011;6054;50.966;7.094;2022-12-18T14:46:01;17.23;;;8.90;;
11988;SDS011;6054;50.966;7.094;2022-12-18T14:48:35;16.53;;;10.13;;
11988;SDS011;6054;50.966;7.094;2022-12-18T14:51:05;18.13;;;10.27;;
11988;SDS011;6054;50.966;7.094;2022-12-18T14:53:35;19.57;;;11.43;;
11988;SDS011;6054;50.966;7.094;2022-12-18T14:56:10;20.30;;;11.33;;
11988;SDS011;6054;50.966;7.094;2022-12-18T14:58:44;17.27;;;10.67;;
11988;SDS011;6054;50.966;7.094;2022-12-18T15:04:04;20.87;;;11.20;;
11988;SDS011;6054;50.966;7.094;2022-12-18T15:06:50;17.93;;;10.80;;
11988;SDS011;6054;50.966;7.094;2022-12-18T15:09:30;17.83;;;10.73;;
11988;SDS011;6054;50.966;7.094;2022-12-18T15:11:57;20.73;;;11.20;;
11988;SDS011;6054;50.966;7.094;2022-12-18T15:14:35;16.37;;;8.90;;
11988;SDS011;6054;50.966;7.094;2022-12-18T15:17:06;20.23;;;11.90;;
11988;SDS011;6054;50.966;7.094;2022-12-18T15:19:42;15.77;;;8.97;;
11988;SDS011;6054;50.966;7.094;2022-12-18T15:22:15;15.93;;;8.57;;
11988;SDS011;6054;50.966;7.094;2022-12-18T15:24:46;21.37;;;11.90;;
11988;SDS011;6054;50.966;7.094;2022-12-18T15:27:20;18.97;;;10.50;;
11988;SDS011;6054;50.966;7.094;2022-12-18T15:32:52;21.27;;;12.60;;
11988;SDS011;6054;50.966;7.094;2022-12-18T15:35:44;17.70;;;10.13;;
11988;SDS011;6054;50.966;7.094;2022-12-18T15:38:11;20.07;;;10.93;;
11988;SDS011;6054;50.966;7.094;2022-12-18T15:40:37;19.90;;;11.40;;